Time;durP1;ratioP1;P1;durP2;ratioP2;P2;SDS_P1;SDS_P2;PMS_P1;PMS_P2;Temp;Humidity;BMP_temperature;BMP_pressure;BME280_temperature;BME280_humidity;BME280_pressure;Samples;Min_cycle;Max_cycle;Signal;HPM_P1;HPM_P2
2023/06/14 00:01:06;;;;;;;0.85;0.70;;;19.90;80.20;;;;;;5091280;28;20226;-74
2023/06/14 00:03:34;;;;;;;1.23;0.85;;;19.90;81.70;;;;;;5091239;28;20253;-74
2023/06/14 00:06:02;;;;;;;0.70;0.60;;;19.80;81.90;;;;;;5091363;28;20235;-74
2023/06/14 00:08:29;;;;;;;1.25;1.08;;;19.80;82.50;;;;;;5090851;28;20249;-73
2023/06/14 00:10:57;;;;;;;0.93;0.80;;;19.70;84.10;;;;;;5090780;28;20564;-74
2023/06/14 00:13:25;;;;;;;0.98;0.90;;;19.70;83.60;;;;;;5090494;28;20288;-72
2023/06/14 00:15:55;;;;;;;0.80;0.80;;;19.70;82.30;;;;;;5090597;28;20285;-72
2023/06/14 00:18:24;;;;;;;2.35;0.90;;;19.60;81.80;;;;;;5090456;28;20211;-72
2023/06/14 00:20:52;;;;;;;0.82;0.80;;;19.60;84.60;;;;;;5091145;28;20661;-72
2023/06/14 00:23:20;;;;;;;0.60;0.50;;;19.70;84.20;;;;;;5091157;28;20233;-72
2023/06/14 00:25:49;;;;;;;1.23;1.13;;;19.70;83.90;;;;;;5098313;28;20207;-73
2023/06/14 00:28:16;;;;;;;0.98;0.88;;;19.60;81.10;;;;;;5087380;28;20598;-73
2023/06/14 00:30:46;;;;;;;1.17;0.73;;;19.40;83.20;;;;;;5090526;28;20291;-75
2023/06/14 00:33:15;;;;;;;1.00;0.85;;;19.40;84.90;;;;;;5090959;28;20231;-72
2023/06/14 00:35:44;;;;;;;0.80;0.70;;;19.30;82.40;;;;;;5081507;28;20215;-72
2023/06/14 00:38:12;;;;;;;0.90;0.90;;;19.10;82.60;;;;;;5083465;28;20215;-74
2023/06/14 00:40:40;;;;;;;1.35;0.95;;;19.00;82.50;;;;;;5083083;28;20213;-72
2023/06/14 00:43:08;;;;;;;0.80;0.80;;;18.90;82.70;;;;;;5084887;28;20234;-73
2023/06/14 00:45:36;;;;;;;1.25;0.70;;;18.70;82.50;;;;;;5085872;28;20215;-77
2023/06/14 00:48:06;;;;;;;0.70;0.65;;;18.70;85.60;;;;;;5082469;28;20690;-74
2023/06/14 00:50:36;;;;;;;1.00;0.90;;;18.70;83.90;;;;;;5087048;28;20337;-72
2023/06/14 00:53:04;;;;;;;1.38;1.27;;;18.70;83.20;;;;;;5080165;28;20227;-73
2023/06/14 00:55:33;;;;;;;0.90;0.80;;;18.60;83.90;;;;;;5087607;28;20571;-75
2023/06/14 00:58:01;;;;;;;2.15;1.30;;;18.60;83.60;;;;;;5084899;28;20901;-73
2023/06/14 01:00:29;;;;;;;2.10;1.58;;;18.50;83.90;;;;;;5082272;28;20202;-73
2023/06/14 01:02:57;;;;;;;0.90;0.70;;;18.50;84.60;;;;;;5086011;28;20241;-72
2023/06/14 01:05:26;;;;;;;1.10;1.00;;;18.40;84.30;;;;;;5083728;28;20588;-75
2023/06/14 01:08:12;;;;;;;0.70;0.70;;;18.40;84.90;;;;;;5080156;28;20665;-74
2023/06/14 01:10:49;;;;;;;1.48;0.95;;;18.20;84.60;;;;;;5087091;28;20232;-74
2023/06/14 01:13:28;;;;;;;0.60;0.60;;;18.20;85.40;;;;;;5090361;28;20237;-74
2023/06/14 01:15:57;;;;;;;1.77;0.85;;;18.20;84.90;;;;;;5088916;28;20202;-73
2023/06/14 01:18:25;;;;;;;0.80;0.80;;;18.20;84.30;;;;;;5089894;28;20583;-74
2023/06/14 01:20:54;;;;;;;1.35;0.90;;;18.20;84.60;;;;;;5089321;28;20211;-75
2023/06/14 01:23:32;;;;;;;3.08;0.80;;;18.20;84.20;;;;;;5090349;28;20727;-74
2023/06/14 01:26:02;;;;;;;0.80;0.70;;;18.20;84.20;;;;;;5086126;28;20206;-74
2023/06/14 01:28:33;;;;;;;0.70;0.60;;;18.20;84.20;;;;;;5083260;28;20216;-74
2023/06/14 01:31:04;;;;;;;0.70;0.70;;;18.20;83.80;;;;;;5086494;28;20207;-74
2023/06/14 01:33:34;;;;;;;0.90;0.65;;;18.20;86.70;;;;;;5087572;28;20226;-75
2023/06/14 01:36:03;;;;;;;0.80;0.70;;;18.30;84.10;;;;;;5087087;28;20210;-74
2023/06/14 01:38:33;;;;;;;1.08;0.95;;;18.30;83.90;;;;;;5081167;28;20221;-74
2023/06/14 01:41:02;;;;;;;1.27;1.00;;;18.30;83.70;;;;;;5084716;28;20199;-72
2023/06/14 01:43:31;;;;;;;0.80;0.80;;;18.20;84.30;;;;;;5087924;28;20234;-75
2023/06/14 01:46:01;;;;;;;1.17;0.95;;;18.20;84.90;;;;;;5075514;28;20230;-74
2023/06/14 01:48:29;;;;;;;2.10;0.70;;;18.20;85.10;;;;;;5082080;28;20293;-76
2023/06/14 01:50:57;;;;;;;0.80;0.65;;;18.20;85.30;;;;;;5083911;28;20200;-75
2023/06/14 01:53:25;;;;;;;1.10;0.70;;;18.10;85.20;;;;;;5078357;28;20230;-74
2023/06/14 01:55:54;;;;;;;1.27;1.13;;;18.10;84.40;;;;;;5083659;28;20704;-69
2023/06/14 01:58:23;;;;;;;0.90;0.70;;;18.10;84.80;;;;;;5089785;28;20720;-69
2023/06/14 02:00:55;;;;;;;0.95;0.82;;;18.10;84.80;;;;;;5089747;28;20202;-70
2023/06/14 02:03:27;;;;;;;0.60;0.50;;;18.00;85.10;;;;;;5090098;28;20232;-70
2023/06/14 02:05:55;;;;;;;1.02;0.93;;;18.00;85.10;;;;;;5089136;28;20215;-70
2023/06/14 02:08:23;;;;;;;1.63;1.05;;;17.90;85.20;;;;;;5089588;28;20677;-69
2023/06/14 02:10:51;;;;;;;1.00;0.80;;;17.90;85.90;;;;;;5088683;28;20206;-69
2023/06/14 02:13:21;;;;;;;0.80;0.75;;;17.80;85.60;;;;;;5088686;28;20242;-70
2023/06/14 02:15:52;;;;;;;1.33;0.80;;;17.80;85.70;;;;;;5086133;28;20209;-70
2023/06/14 02:18:21;;;;;;;0.70;0.70;;;17.80;85.50;;;;;;5089565;28;20210;-70
2023/06/14 02:20:49;;;;;;;0.70;0.60;;;17.80;85.60;;;;;;5090177;28;20221;-69
2023/06/14 02:23:17;;;;;;;1.00;1.00;;;17.80;86.00;;;;;;5087259;28;20293;-69
2023/06/14 02:25:45;;;;;;;1.20;0.95;;;17.80;86.30;;;;;;5092717;28;20206;-69
2023/06/14 02:28:14;;;;;;;1.75;1.10;;;17.70;85.80;;;;;;5090737;28;20281;-70
2023/06/14 02:30:43;;;;;;;1.00;0.63;;;17.70;86.00;;;;;;5089136;28;20578;-69
2023/06/14 02:33:12;;;;;;;0.60;0.52;;;17.70;86.60;;;;;;5091128;28;20602;-69
2023/06/14 02:35:40;;;;;;;0.70;0.55;;;17.70;86.70;;;;;;5087290;28;20203;-69
2023/06/14 02:38:09;;;;;;;0.70;0.60;;;17.70;86.90;;;;;;5089937;28;20250;-70
2023/06/14 02:40:37;;;;;;;0.73;0.63;;;17.60;87.00;;;;;;5089069;28;20624;-70
2023/06/14 02:43:05;;;;;;;1.70;0.80;;;17.60;86.70;;;;;;5090500;28;20231;-68
2023/06/14 02:45:33;;;;;;;0.70;0.57;;;17.50;87.20;;;;;;5091175;28;20209;-68
2023/06/14 02:48:02;;;;;;;1.00;0.90;;;17.50;87.90;;;;;;5087353;28;20203;-69
2023/06/14 02:50:30;;;;;;;0.80;0.80;;;17.40;88.30;;;;;;5092308;28;20744;-68
2023/06/14 02:52:58;;;;;;;1.02;0.85;;;17.40;88.90;;;;;;5090500;28;20721;-69
2023/06/14 02:55:26;;;;;;;0.75;0.63;;;17.40;88.80;;;;;;5088436;28;20657;-68
2023/06/14 02:57:54;;;;;;;0.70;0.60;;;17.40;88.90;;;;;;5087954;28;20230;-68
2023/06/14 03:00:23;;;;;;;0.60;0.50;;;17.40;89.00;;;;;;5086531;28;20203;-69
2023/06/14 03:02:51;;;;;;;1.00;0.90;;;17.40;89.20;;;;;;5088199;28;20241;-69
2023/06/14 03:05:21;;;;;;;1.13;0.85;;;17.30;89.10;;;;;;5085564;28;20218;-68
2023/06/14 03:07:50;;;;;;;1.38;1.00;;;17.30;89.70;;;;;;5088285;28;20202;-68
2023/06/14 03:10:18;;;;;;;1.00;0.80;;;17.30;90.10;;;;;;5085694;28;20203;-68
2023/06/14 03:12:46;;;;;;;1.00;0.80;;;17.20;89.60;;;;;;5089384;28;20235;-69
2023/06/14 03:15:14;;;;;;;0.88;0.77;;;17.20;90.00;;;;;;5088224;28;20195;-70
2023/06/14 03:17:45;;;;;;;0.88;0.82;;;17.20;89.50;;;;;;5088752;28;20489;-70
2023/06/14 03:20:15;;;;;;;1.08;0.93;;;17.20;90.30;;;;;;5083850;28;20199;-70
2023/06/14 03:22:47;;;;;;;1.30;1.20;;;17.20;90.10;;;;;;5088523;28;20218;-70
2023/06/14 03:25:18;;;;;;;1.25;0.85;;;17.20;89.70;;;;;;5082477;28;20745;-70
2023/06/14 03:27:46;;;;;;;0.90;0.90;;;17.20;90.00;;;;;;5087004;28;20204;-70
2023/06/14 03:30:14;;;;;;;1.48;1.35;;;17.20;90.10;;;;;;5086155;28;20200;-70
2023/06/14 03:32:43;;;;;;;0.73;0.70;;;17.20;90.10;;;;;;5087397;28;20226;-70
2023/06/14 03:35:16;;;;;;;0.70;0.60;;;17.20;89.90;;;;;;5084652;28;20203;-70
2023/06/14 03:37:46;;;;;;;2.45;0.95;;;17.30;89.10;;;;;;5086804;28;20265;-70
2023/06/14 03:40:16;;;;;;;0.95;0.85;;;17.30;89.70;;;;;;5086482;28;20210;-70
2023/06/14 03:42:44;;;;;;;1.70;0.85;;;17.30;89.50;;;;;;5088366;28;20626;-70
2023/06/14 03:45:12;;;;;;;0.80;0.80;;;17.40;90.00;;;;;;5089864;28;20532;-70
2023/06/14 03:47:40;;;;;;;1.20;1.10;;;17.40;90.00;;;;;;5089879;28;20194;-70
2023/06/14 03:50:09;;;;;;;0.90;0.70;;;17.30;90.40;;;;;;5090150;28;20657;-70
2023/06/14 03:52:37;;;;;;;1.23;0.73;;;17.30;90.50;;;;;;5090676;28;20226;-70
2023/06/14 03:55:07;;;;;;;1.60;1.45;;;17.40;90.50;;;;;;5091022;28;20229;-70
2023/06/14 03:57:38;;;;;;;1.05;0.85;;;17.40;90.50;;;;;;5090176;28;20228;-70
2023/06/14 04:00:08;;;;;;;1.15;0.85;;;17.30;90.80;;;;;;5089491;28;20223;-69
2023/06/14 04:02:36;;;;;;;0.80;0.80;;;17.30;90.70;;;;;;5088532;28;20714;-68
2023/06/14 04:05:08;;;;;;;1.10;1.00;;;17.30;91.10;;;;;;5086614;28;20356;-69
2023/06/14 04:07:39;;;;;;;1.00;0.90;;;17.30;91.10;;;;;;5083036;28;20247;-68
2023/06/14 04:10:10;;;;;;;0.60;0.50;;;17.30;91.50;;;;;;5087088;28;20673;-69
2023/06/14 04:12:38;;;;;;;0.75;0.60;;;17.30;91.60;;;;;;5109470;22;20230;-64
2023/06/14 04:15:09;;;;;;;0.75;0.60;;;17.30;91.40;;;;;;5089221;28;20628;-64
2023/06/14 04:17:48;;;;;;;1.00;1.00;;;17.30;91.20;;;;;;5083639;28;20224;-64
2023/06/14 04:20:16;;;;;;;0.75;0.70;;;17.40;91.20;;;;;;5089534;28;20735;-63
2023/06/14 04:22:45;;;;;;;0.90;0.80;;;17.40;91.30;;;;;;5085478;28;20328;-64
2023/06/14 04:25:14;;;;;;;0.80;0.80;;;17.40;91.60;;;;;;5074259;28;20697;-63
2023/06/14 04:27:43;;;;;;;0.90;0.80;;;17.50;91.70;;;;;;5073197;28;20211;-64
2023/06/14 04:30:13;;;;;;;0.80;0.80;;;17.60;91.30;;;;;;5078733;28;20207;-64
2023/06/14 04:32:42;;;;;;;1.45;0.70;;;17.60;91.40;;;;;;5078798;28;20310;-64
2023/06/14 04:35:10;;;;;;;0.70;0.70;;;17.60;91.40;;;;;;5072438;28;21070;-63
2023/06/14 04:37:41;;;;;;;1.00;0.90;;;17.70;91.40;;;;;;5076584;28;20247;-64
2023/06/14 04:40:10;;;;;;;1.58;1.05;;;17.70;91.60;;;;;;5078908;28;20207;-63
2023/06/14 04:42:44;;;;;;;0.82;0.82;;;17.80;90.90;;;;;;5081023;28;20637;-64
2023/06/14 04:45:12;;;;;;;0.80;0.70;;;17.80;90.80;;;;;;5083970;28;20204;-63
2023/06/14 04:47:41;;;;;;;1.15;0.70;;;17.90;90.80;;;;;;5075578;28;20206;-64
2023/06/14 04:50:12;;;;;;;1.33;0.90;;;17.90;91.40;;;;;;5071178;28;20210;-64
2023/06/14 04:52:40;;;;;;;0.77;0.70;;;17.90;90.90;;;;;;5070505;28;20233;-64
2023/06/14 04:55:09;;;;;;;0.70;0.70;;;18.00;91.30;;;;;;5082714;28;20215;-64
2023/06/14 04:57:38;;;;;;;0.70;0.70;;;18.00;91.50;;;;;;5082410;28;20207;-64
2023/06/14 05:00:11;;;;;;;1.02;0.93;;;18.10;91.80;;;;;;5088184;28;20225;-64
2023/06/14 05:02:40;;;;;;;0.68;0.63;;;18.10;91.80;;;;;;5085320;28;20792;-63
2023/06/14 05:05:09;;;;;;;1.00;0.90;;;18.10;91.40;;;;;;5081775;28;20560;-64
2023/06/14 05:07:37;;;;;;;0.80;0.80;;;18.20;91.90;;;;;;5084679;28;20210;-63
2023/06/14 05:10:09;;;;;;;1.45;1.35;;;18.20;91.80;;;;;;5088868;28;20229;-63
2023/06/14 05:12:38;;;;;;;0.80;0.70;;;18.30;91.70;;;;;;5071470;28;20238;-64
2023/06/14 05:15:10;;;;;;;0.73;0.68;;;18.30;91.70;;;;;;5046809;28;20203;-64
2023/06/14 05:17:40;;;;;;;5.55;1.52;;;18.40;92.10;;;;;;5034301;28;20212;-63
2023/06/14 05:20:10;;;;;;;0.85;0.85;;;18.40;91.60;;;;;;5036680;28;20274;-64
2023/06/14 05:22:38;;;;;;;0.80;0.60;;;18.50;91.50;;;;;;5036385;28;20323;-64
2023/06/14 05:25:06;;;;;;;0.90;0.68;;;18.60;91.10;;;;;;5033953;28;20269;-64
2023/06/14 05:27:36;;;;;;;1.13;0.70;;;18.60;91.20;;;;;;5033228;28;20219;-62
2023/06/14 05:30:08;;;;;;;1.00;1.00;;;18.60;90.70;;;;;;5034209;28;20224;-64
2023/06/14 05:32:36;;;;;;;1.05;0.90;;;18.60;91.00;;;;;;5038098;28;20232;-64
2023/06/14 05:35:04;;;;;;;0.95;0.85;;;18.60;91.10;;;;;;5033741;28;20234;-64
2023/06/14 05:37:32;;;;;;;1.05;0.90;;;18.60;91.50;;;;;;5034510;28;20603;-63
2023/06/14 05:40:00;;;;;;;0.70;0.70;;;18.60;90.90;;;;;;5036984;28;20221;-65
2023/06/14 05:42:28;;;;;;;1.17;0.60;;;18.60;91.60;;;;;;5034905;28;20224;-63
2023/06/14 05:44:56;;;;;;;0.70;0.60;;;18.60;91.10;;;;;;5033753;28;20242;-63
2023/06/14 05:47:25;;;;;;;1.20;0.73;;;18.70;91.20;;;;;;5040424;28;20235;-64
2023/06/14 05:49:53;;;;;;;0.60;0.60;;;18.80;91.40;;;;;;5038940;28;20277;-62
2023/06/14 05:52:21;;;;;;;0.70;0.70;;;18.90;91.60;;;;;;5041294;28;20236;-64
2023/06/14 05:54:49;;;;;;;1.30;0.75;;;18.80;90.90;;;;;;5036352;28;20220;-64
2023/06/14 05:57:17;;;;;;;0.80;0.60;;;18.80;91.60;;;;;;5040429;28;20212;-63
2023/06/14 05:59:45;;;;;;;0.80;0.80;;;18.90;92.00;;;;;;5036648;28;20231;-64
2023/06/14 06:02:13;;;;;;;1.92;1.10;;;19.00;91.60;;;;;;5037678;28;20224;-64
2023/06/14 06:04:42;;;;;;;1.00;0.88;;;19.00;92.10;;;;;;5035371;28;20338;-64
2023/06/14 06:07:10;;;;;;;1.45;0.80;;;19.10;92.00;;;;;;5040682;28;21104;-64
2023/06/14 06:09:38;;;;;;;0.80;0.80;;;19.00;92.00;;;;;;5038624;28;20238;-64
2023/06/14 06:12:08;;;;;;;1.10;0.95;;;19.10;92.50;;;;;;5039591;28;21377;-65
2023/06/14 06:14:35;;;;;;;3.05;2.85;;;19.10;91.90;;;;;;5034787;28;20231;-64
2023/06/14 06:17:04;;;;;;;0.80;0.80;;;19.00;92.00;;;;;;5043221;28;20217;-64
2023/06/14 06:19:32;;;;;;;1.33;1.02;;;19.10;93.00;;;;;;5035947;28;20221;-65
2023/06/14 06:22:04;;;;;;;0.98;0.95;;;19.20;92.90;;;;;;5038004;28;20247;-65
2023/06/14 06:24:32;;;;;;;1.63;1.00;;;19.40;92.90;;;;;;5036269;28;20215;-64
2023/06/14 06:27:02;;;;;;;0.70;0.70;;;19.50;92.80;;;;;;5036349;28;20291;-64
2023/06/14 06:29:30;;;;;;;1.00;0.63;;;19.40;92.00;;;;;;5039594;28;20286;-64
2023/06/14 06:31:58;;;;;;;0.80;0.73;;;19.30;91.80;;;;;;5037012;28;20215;-64
2023/06/14 06:34:25;;;;;;;0.80;0.60;;;19.20;92.20;;;;;;5036250;28;20208;-64
2023/06/14 06:36:53;;;;;;;1.38;0.70;;;19.30;92.80;;;;;;5038415;28;20223;-64
2023/06/14 06:39:23;;;;;;;0.88;0.82;;;19.30;92.70;;;;;;5041349;28;20228;-63
2023/06/14 06:41:51;;;;;;;1.00;0.90;;;19.40;92.70;;;;;;5041222;28;20216;-64
2023/06/14 06:44:18;;;;;;;0.60;0.60;;;19.30;92.40;;;;;;5043426;28;20223;-64
2023/06/14 06:46:46;;;;;;;0.93;0.93;;;19.30;92.40;;;;;;5039967;28;20258;-64
2023/06/14 06:49:14;;;;;;;1.33;0.82;;;19.30;92.60;;;;;;5041738;28;20297;-64
2023/06/14 06:51:44;;;;;;;0.70;0.70;;;19.40;92.60;;;;;;5042807;28;20205;-64
2023/06/14 06:54:12;;;;;;;0.70;0.60;;;19.40;92.90;;;;;;5039702;28;20225;-64
2023/06/14 06:56:41;;;;;;;0.90;0.80;;;19.40;93.10;;;;;;5039790;28;20297;-64
2023/06/14 06:59:09;;;;;;;0.60;0.50;;;19.50;92.80;;;;;;5039780;28;20217;-64
2023/06/14 07:01:37;;;;;;;0.93;0.82;;;19.60;93.10;;;;;;5040947;28;20606;-63
2023/06/14 07:04:05;;;;;;;0.80;0.60;;;19.70;92.70;;;;;;5035853;28;20213;-64
2023/06/14 07:06:33;;;;;;;1.05;0.95;;;19.80;92.90;;;;;;5039614;28;20207;-63
2023/06/14 07:09:01;;;;;;;0.95;0.52;;;19.70;92.70;;;;;;5042696;28;20200;-63
2023/06/14 07:11:29;;;;;;;0.70;0.60;;;19.70;93.10;;;;;;5040255;28;20237;-64
2023/06/14 07:13:58;;;;;;;0.95;0.60;;;19.70;93.20;;;;;;5077614;28;20620;-64
2023/06/14 07:16:26;;;;;;;0.80;0.50;;;19.80;93.10;;;;;;5083231;28;20204;-64
2023/06/14 07:18:55;;;;;;;0.80;0.55;;;19.90;93.30;;;;;;5081295;28;20213;-64
2023/06/14 07:21:22;;;;;;;0.88;0.60;;;20.10;93.70;;;;;;5083233;28;20223;-63
2023/06/14 07:23:50;;;;;;;0.75;0.73;;;20.10;93.10;;;;;;5082591;28;20231;-64
2023/06/14 07:26:18;;;;;;;0.70;0.60;;;20.20;92.90;;;;;;5082367;28;20870;-64
2023/06/14 07:28:47;;;;;;;0.65;0.55;;;20.30;92.90;;;;;;5082560;28;20745;-64
2023/06/14 07:31:18;;;;;;;0.73;0.60;;;20.40;93.20;;;;;;5080324;28;20207;-67
2023/06/14 07:33:46;;;;;;;1.13;1.02;;;20.40;92.50;;;;;;5079199;28;20285;-63
2023/06/14 07:36:15;;;;;;;0.80;0.73;;;20.30;92.30;;;;;;5077321;28;20216;-64
2023/06/14 07:38:43;;;;;;;0.60;0.50;;;20.40;92.10;;;;;;5077754;28;20219;-64
2023/06/14 07:41:11;;;;;;;0.98;0.50;;;20.50;92.50;;;;;;5077879;28;20743;-64
2023/06/14 07:43:38;;;;;;;0.70;0.60;;;20.50;92.60;;;;;;5077495;28;20235;-63
2023/06/14 07:46:08;;;;;;;0.70;0.63;;;20.60;92.60;;;;;;5076963;28;20211;-63
2023/06/14 07:48:37;;;;;;;0.80;0.80;;;20.70;92.70;;;;;;5078356;28;20212;-63
2023/06/14 07:51:05;;;;;;;0.85;0.60;;;20.90;92.70;;;;;;5079162;28;20622;-64
2023/06/14 07:53:33;;;;;;;0.70;0.50;;;20.80;92.20;;;;;;5078861;28;20256;-64
2023/06/14 07:56:02;;;;;;;0.68;0.50;;;20.90;92.60;;;;;;5076984;28;20207;-63
2023/06/14 07:58:30;;;;;;;0.60;0.50;;;21.00;92.00;;;;;;5076772;28;20206;-64
2023/06/14 08:00:59;;;;;;;0.60;0.50;;;21.00;92.30;;;;;;5079951;28;20590;-63
2023/06/14 08:03:27;;;;;;;0.65;0.60;;;21.20;92.30;;;;;;5078335;28;20226;-63
2023/06/14 08:05:56;;;;;;;0.68;0.57;;;21.30;91.90;;;;;;5076722;28;20227;-63
2023/06/14 08:08:24;;;;;;;0.80;0.50;;;21.20;91.40;;;;;;5076897;28;20207;-63
2023/06/14 08:10:52;;;;;;;0.60;0.60;;;21.10;92.00;;;;;;5079893;28;21287;-63
2023/06/14 08:13:20;;;;;;;0.60;0.40;;;21.10;91.30;;;;;;5073480;28;20236;-63
2023/06/14 08:15:48;;;;;;;0.70;0.50;;;21.10;92.10;;;;;;5074037;28;20227;-63
2023/06/14 08:18:16;;;;;;;0.70;0.50;;;21.30;92.00;;;;;;5073290;28;20604;-64
2023/06/14 08:20:44;;;;;;;0.60;0.57;;;21.50;91.90;;;;;;5069591;28;20236;-64
2023/06/14 08:23:14;;;;;;;0.68;0.55;;;21.70;92.20;;;;;;5070331;28;20230;-64
2023/06/14 08:25:42;;;;;;;0.60;0.50;;;21.80;90.80;;;;;;5070518;28;20207;-64
2023/06/14 08:28:10;;;;;;;0.82;0.68;;;21.70;90.90;;;;;;5069708;28;20267;-63
2023/06/14 08:30:38;;;;;;;0.93;0.57;;;21.90;90.90;;;;;;5071267;28;20202;-63
2023/06/14 08:33:06;;;;;;;0.60;0.40;;;22.00;91.60;;;;;;5074148;28;20231;-64
2023/06/14 08:35:44;;;;;;;0.60;0.50;;;22.10;90.80;;;;;;5067340;28;20235;-64
2023/06/14 08:38:13;;;;;;;0.70;0.50;;;22.30;90.60;;;;;;5068940;28;20694;-64
2023/06/14 08:40:42;;;;;;;1.05;0.85;;;22.50;90.50;;;;;;5072689;28;20896;-63
2023/06/14 08:43:10;;;;;;;1.17;0.60;;;22.60;90.20;;;;;;5073001;28;20232;-63
2023/06/14 08:45:38;;;;;;;0.60;0.47;;;22.50;89.30;;;;;;5071891;28;20212;-63
2023/06/14 08:48:09;;;;;;;0.60;0.50;;;22.60;86.80;;;;;;5076418;28;20228;-63
2023/06/14 08:50:41;;;;;;;0.60;0.40;;;22.40;86.80;;;;;;5071074;28;20433;-63
2023/06/14 08:53:19;;;;;;;0.60;0.40;;;22.40;87.40;;;;;;5064888;28;20316;-63
2023/06/14 08:55:48;;;;;;;0.60;0.50;;;22.50;84.60;;;;;;5061756;28;20220;-62
2023/06/14 08:58:17;;;;;;;0.60;0.40;;;22.50;87.80;;;;;;5065621;28;20209;-64
2023/06/14 09:00:46;;;;;;;0.70;0.60;;;22.90;85.90;;;;;;5070616;28;20236;-63
2023/06/14 09:03:14;;;;;;;0.90;0.70;;;22.80;85.00;;;;;;5072679;28;20668;-64
2023/06/14 09:05:43;;;;;;;0.60;0.40;;;22.90;85.40;;;;;;5069328;28;21079;-63
2023/06/14 09:08:11;;;;;;;0.60;0.40;;;23.20;86.10;;;;;;5067938;28;20208;-63
2023/06/14 09:10:41;;;;;;;0.70;0.65;;;23.10;83.80;;;;;;5074772;28;20220;-63
2023/06/14 09:13:09;;;;;;;0.60;0.43;;;23.50;84.10;;;;;;5073695;28;21225;-63
2023/06/14 09:15:37;;;;;;;0.60;0.47;;;23.30;81.40;;;;;;5065134;28;20215;-64
2023/06/14 09:18:06;;;;;;;0.70;0.50;;;23.40;84.10;;;;;;5071082;28;20213;-63
2023/06/14 09:20:34;;;;;;;0.60;0.40;;;23.60;82.40;;;;;;5074577;28;20235;-64
2023/06/14 09:23:05;;;;;;;0.60;0.40;;;23.70;82.00;;;;;;5082648;28;21032;-63
2023/06/14 09:25:33;;;;;;;0.60;0.40;;;23.70;80.50;;;;;;5073951;28;20205;-64
2023/06/14 09:28:09;;;;;;;0.75;0.70;;;23.70;80.90;;;;;;5072438;28;20351;-64
2023/06/14 09:30:38;;;;;;;0.60;0.50;;;23.70;82.20;;;;;;5072480;28;20212;-63
2023/06/14 09:33:06;;;;;;;0.60;0.55;;;23.90;81.70;;;;;;5076151;28;20237;-63
2023/06/14 09:35:34;;;;;;;0.60;0.55;;;23.80;82.70;;;;;;5069634;28;21284;-63
2023/06/14 09:38:02;;;;;;;0.60;0.45;;;23.90;81.70;;;;;;5075842;28;20219;-64
2023/06/14 09:40:36;;;;;;;0.70;0.65;;;24.10;81.60;;;;;;5073534;28;20857;-64
2023/06/14 09:43:08;;;;;;;0.88;0.80;;;24.30;81.50;;;;;;5075857;28;20995;-63
2023/06/14 09:45:39;;;;;;;0.60;0.40;;;24.30;81.30;;;;;;5070052;28;20213;-64
2023/06/14 09:48:08;;;;;;;0.60;0.40;;;24.10;80.80;;;;;;5075912;28;20300;-64
2023/06/14 09:50:36;;;;;;;0.60;0.40;;;24.30;81.70;;;;;;5075179;28;20217;-63
2023/06/14 09:53:07;;;;;;;0.60;0.50;;;24.50;79.60;;;;;;5079528;28;20247;-64
2023/06/14 09:55:37;;;;;;;0.60;0.40;;;24.40;77.60;;;;;;5073484;28;20213;-64
2023/06/14 09:58:07;;;;;;;0.60;0.50;;;24.50;80.60;;;;;;5076773;28;20228;-63
2023/06/14 10:00:39;;;;;;;0.60;0.40;;;24.60;79.40;;;;;;5075777;28;20217;-64
2023/06/14 10:03:15;;;;;;;0.65;0.52;;;24.70;79.40;;;;;;5077619;28;21237;-64
2023/06/14 10:05:46;;;;;;;0.77;0.50;;;24.60;79.20;;;;;;5070297;28;20200;-63
2023/06/14 10:08:17;;;;;;;0.80;0.50;;;24.60;78.10;;;;;;5077843;28;20218;-64
2023/06/14 10:10:45;;;;;;;0.80;0.65;;;24.90;78.70;;;;;;5081184;28;20282;-63
2023/06/14 10:13:14;;;;;;;0.60;0.50;;;25.40;79.20;;;;;;5086283;22;20906;-72
2023/06/14 10:15:51;;;;;;;0.88;0.65;;;25.70;79.20;;;;;;5056639;28;20210;-74
2023/06/14 10:18:27;;;;;;;0.60;0.40;;;25.80;77.40;;;;;;5064682;28;20219;-73
2023/06/14 10:21:04;;;;;;;1.17;0.45;;;25.90;78.70;;;;;;5066795;28;20713;-74
2023/06/14 10:23:36;;;;;;;0.60;0.50;;;25.80;75.00;;;;;;5082438;28;20710;-72
2023/06/14 10:26:04;;;;;;;0.60;0.43;;;25.50;77.70;;;;;;5085269;28;20218;-71
2023/06/14 10:28:32;;;;;;;0.60;0.40;;;25.50;77.20;;;;;;5085079;28;20198;-71
2023/06/14 10:31:04;;;;;;;0.60;0.40;;;25.60;77.70;;;;;;5088356;28;20210;-72
2023/06/14 10:33:33;;;;;;;0.60;0.40;;;25.90;77.60;;;;;;5084820;28;20267;-69
2023/06/14 10:36:09;;;;;;;0.98;0.88;;;26.10;75.90;;;;;;5080633;28;20204;-72
2023/06/14 10:38:38;;;;;;;0.70;0.65;;;25.90;78.90;;;;;;5077915;28;20202;-71
2023/06/14 10:41:07;;;;;;;0.60;0.50;;;25.90;77.40;;;;;;5082318;28;20288;-71
2023/06/14 10:43:35;;;;;;;0.90;0.60;;;25.90;77.00;;;;;;5078866;28;20298;-73
2023/06/14 10:46:18;;;;;;;0.60;0.60;;;25.80;78.90;;;;;;5078229;28;20274;-71
2023/06/14 10:48:46;;;;;;;0.60;0.47;;;25.80;79.10;;;;;;5078675;28;20217;-74
2023/06/14 10:51:20;;;;;;;1.05;0.50;;;25.90;77.70;;;;;;5077752;28;20206;-75
2023/06/14 10:53:49;;;;;;;0.60;0.40;;;25.60;76.50;;;;;;5084427;28;20719;-73
2023/06/14 10:56:30;;;;;;;0.60;0.40;;;25.90;77.10;;;;;;5080217;28;20307;-75
2023/06/14 10:58:58;;;;;;;0.70;0.40;;;26.30;74.00;;;;;;5076109;28;20202;-75
2023/06/14 11:01:39;;;;;;;0.77;0.50;;;26.40;75.80;;;;;;5084854;28;20215;-74
2023/06/14 11:04:09;;;;;;;0.70;0.60;;;26.70;75.00;;;;;;5079658;28;20245;-75
2023/06/14 11:06:48;;;;;;;1.38;1.00;;;26.50;74.10;;;;;;5080220;28;20300;-74
2023/06/14 11:10:04;;;;;;;1.48;0.55;;;26.50;74.80;;;;;;5077467;28;20225;-75
2023/06/14 11:12:35;;;;;;;1.00;0.80;;;26.50;75.00;;;;;;5074125;28;20291;-73
2023/06/14 11:15:04;;;;;;;1.08;0.60;;;26.70;74.80;;;;;;5080771;28;20207;-73
2023/06/14 11:17:33;;;;;;;0.60;0.50;;;26.90;76.70;;;;;;5078449;28;20249;-75
2023/06/14 11:20:15;;;;;;;0.60;0.40;;;26.90;76.40;;;;;;5078043;28;20202;-74
2023/06/14 11:22:47;;;;;;;0.80;0.70;;;26.60;75.50;;;;;;5077585;28;20228;-74
2023/06/14 11:25:16;;;;;;;0.73;0.70;;;25.70;77.00;;;;;;5069365;28;20556;-73
2023/06/14 11:27:44;;;;;;;1.60;0.60;;;26.10;76.40;;;;;;5072225;28;20211;-73
2023/06/14 11:30:14;;;;;;;0.60;0.40;;;26.40;76.00;;;;;;5080796;28;20256;-74
2023/06/14 11:32:47;;;;;;;1.05;0.70;;;27.10;74.70;;;;;;5084585;28;20314;-73
2023/06/14 11:35:19;;;;;;;0.70;0.50;;;27.30;75.50;;;;;;5067285;28;20219;-73
2023/06/14 11:37:47;;;;;;;0.68;0.60;;;27.40;76.20;;;;;;5078491;28;21036;-74
2023/06/14 11:40:15;;;;;;;1.20;0.73;;;27.10;73.90;;;;;;5073153;28;20201;-74
2023/06/14 11:42:43;;;;;;;0.60;0.50;;;27.10;76.00;;;;;;5076734;28;20803;-73
2023/06/14 11:45:12;;;;;;;0.60;0.50;;;26.80;74.00;;;;;;5069712;28;20299;-74
2023/06/14 11:47:41;;;;;;;0.82;0.80;;;26.50;74.10;;;;;;5078719;28;20214;-74
2023/06/14 11:50:11;;;;;;;0.90;0.60;;;26.70;77.10;;;;;;5078762;28;20234;-74
2023/06/14 11:52:40;;;;;;;0.85;0.60;;;27.10;75.40;;;;;;5068947;28;20237;-73
2023/06/14 11:55:08;;;;;;;0.60;0.50;;;26.70;75.60;;;;;;5080067;28;20217;-73
2023/06/14 11:57:38;;;;;;;0.70;0.43;;;27.00;74.40;;;;;;5069144;28;20222;-73
2023/06/14 12:00:12;;;;;;;0.60;0.40;;;27.40;75.20;;;;;;5073578;28;20218;-75
2023/06/14 12:02:40;;;;;;;0.70;0.50;;;27.10;74.70;;;;;;5069006;28;20231;-73
2023/06/14 12:05:10;;;;;;;0.70;0.57;;;26.60;75.40;;;;;;5065973;28;20221;-74
2023/06/14 12:07:39;;;;;;;0.60;0.40;;;26.30;75.40;;;;;;5072517;28;20211;-76
2023/06/14 12:10:10;;;;;;;1.77;0.82;;;26.10;74.50;;;;;;5069972;28;20297;-73
2023/06/14 12:12:39;;;;;;;0.70;0.40;;;26.30;74.50;;;;;;5075737;28;20875;-73
2023/06/14 12:15:11;;;;;;;0.60;0.40;;;26.30;75.50;;;;;;5070727;28;20220;-73
2023/06/14 12:17:42;;;;;;;0.75;0.60;;;26.70;75.00;;;;;;5072074;28;20641;-74
2023/06/14 12:20:13;;;;;;;0.75;0.75;;;26.40;74.70;;;;;;5075189;28;20217;-74
2023/06/14 12:22:51;;;;;;;0.60;0.50;;;26.20;73.70;;;;;;5078849;28;20233;-73
2023/06/14 12:25:28;;;;;;;0.82;0.70;;;25.80;75.30;;;;;;5078810;28;20212;-75
2023/06/14 12:27:56;;;;;;;0.60;0.40;;;25.80;74.90;;;;;;5075227;28;20211;-74
2023/06/14 12:30:24;;;;;;;0.60;0.40;;;25.90;73.50;;;;;;5073737;28;20578;-73
2023/06/14 12:32:52;;;;;;;0.60;0.40;;;26.00;75.30;;;;;;5078040;28;20234;-75
2023/06/14 12:35:21;;;;;;;0.82;0.50;;;26.40;74.70;;;;;;5074834;28;20206;-72
2023/06/14 12:37:50;;;;;;;0.70;0.65;;;26.90;73.80;;;;;;5074526;28;20212;-75
2023/06/14 12:40:20;;;;;;;0.65;0.50;;;26.90;74.10;;;;;;5073975;28;20220;-73
2023/06/14 12:42:48;;;;;;;0.63;0.45;;;26.70;73.50;;;;;;5074247;28;20229;-75
2023/06/14 12:45:16;;;;;;;0.60;0.40;;;26.10;73.40;;;;;;5072189;28;20206;-75
2023/06/14 12:47:45;;;;;;;0.60;0.50;;;25.80;74.10;;;;;;5078532;28;20291;-73
2023/06/14 12:50:13;;;;;;;0.60;0.50;;;25.80;75.20;;;;;;5072765;28;20844;-71
2023/06/14 12:52:43;;;;;;;0.60;0.50;;;25.70;73.60;;;;;;5084386;28;20226;-71
2023/06/14 12:55:11;;;;;;;0.60;0.50;;;25.90;74.40;;;;;;5075253;28;20198;-72
2023/06/14 12:57:39;;;;;;;0.60;0.50;;;26.30;74.70;;;;;;5079476;28;20208;-74
2023/06/14 13:00:09;;;;;;;0.60;0.40;;;26.50;75.00;;;;;;5079511;28;20210;-73